sensor_id;sensor_type;location;lat;lon;timestamp;P1;durP1;ratioP1;P2;durP2;ratioP2
57842;SDS011;43673;51.058;3.734;2023-08-06T00:00:28;10.88;;;6.55;;
57842;SDS011;43673;51.058;3.734;2023-08-06T00:02:57;10.63;;;6.80;;
57842;SDS011;43673;51.058;3.734;2023-08-06T00:05:23;11.93;;;7.88;;
57842;SDS011;43673;51.058;3.734;2023-08-06T00:07:49;13.00;;;8.02;;
57842;SDS011;43673;51.058;3.734;2023-08-06T00:10:15;14.82;;;9.02;;
57842;SDS011;43673;51.058;3.734;2023-08-06T00:12:42;15.18;;;8.43;;
57842;SDS011;43673;51.058;3.734;2023-08-06T00:15:11;12.98;;;9.13;;
57842;SDS011;43673;51.058;3.734;2023-08-06T00:17:37;13.70;;;9.25;;
57842;SDS011;43673;51.058;3.734;2023-08-06T00:20:03;13.88;;;9.45;;
57842;SDS011;43673;51.058;3.734;2023-08-06T00:22:37;15.63;;;10.02;;
57842;SDS011;43673;51.058;3.734;2023-08-06T00:25:04;15.57;;;9.57;;
57842;SDS011;43673;51.058;3.734;2023-08-06T00:27:30;16.50;;;9.30;;
57842;SDS011;43673;51.058;3.734;2023-08-06T00:29:57;16.67;;;10.25;;
57842;SDS011;43673;51.058;3.734;2023-08-06T00:32:23;20.33;;;10.40;;
57842;SDS011;43673;51.058;3.734;2023-08-06T00:34:48;15.70;;;9.75;;
57842;SDS011;43673;51.058;3.734;2023-08-06T00:37:17;15.00;;;9.25;;
57842;SDS011;43673;51.058;3.734;2023-08-06T00:39:43;17.60;;;8.68;;
57842;SDS011;43673;51.058;3.734;2023-08-06T00:42:09;13.70;;;8.02;;
57842;SDS011;43673;51.058;3.734;2023-08-06T00:44:36;13.95;;;7.75;;
57842;SDS011;43673;51.058;3.734;2023-08-06T00:47:02;12.23;;;7.68;;
57842;SDS011;43673;51.058;3.734;2023-08-06T00:49:28;9.65;;;7.10;;
57842;SDS011;43673;51.058;3.734;2023-08-06T00:51:54;13.85;;;6.32;;
57842;SDS011;43673;51.058;3.734;2023-08-06T00:54:21;10.82;;;6.07;;
57842;SDS011;43673;51.058;3.734;2023-08-06T00:56:48;9.77;;;5.95;;
57842;SDS011;43673;51.058;3.734;2023-08-06T00:59:14;10.98;;;5.82;;
57842;SDS011;43673;51.058;3.734;2023-08-06T01:01:40;14.20;;;6.20;;
57842;SDS011;43673;51.058;3.734;2023-08-06T01:04:05;16.38;;;7.13;;
57842;SDS011;43673;51.058;3.734;2023-08-06T01:06:47;9.88;;;6.32;;
57842;SDS011;43673;51.058;3.734;2023-08-06T01:09:27;12.02;;;6.82;;
57842;SDS011;43673;51.058;3.734;2023-08-06T01:12:18;17.80;;;6.82;;
57842;SDS011;43673;51.058;3.734;2023-08-06T01:15:08;10.35;;;6.10;;
57842;SDS011;43673;51.058;3.734;2023-08-06T01:17:40;10.20;;;6.80;;
57842;SDS011;43673;51.058;3.734;2023-08-06T01:20:06;14.15;;;7.97;;
57842;SDS011;43673;51.058;3.734;2023-08-06T01:22:33;11.80;;;7.63;;
57842;SDS011;43673;51.058;3.734;2023-08-06T01:24:58;13.30;;;7.82;;
57842;SDS011;43673;51.058;3.734;2023-08-06T01:30:12;16.40;;;9.02;;
57842;SDS011;43673;51.058;3.734;2023-08-06T01:32:42;20.67;;;9.82;;
57842;SDS011;43673;51.058;3.734;2023-08-06T01:35:10;14.55;;;10.98;;
57842;SDS011;43673;51.058;3.734;2023-08-06T01:37:39;14.43;;;10.52;;
57842;SDS011;43673;51.058;3.734;2023-08-06T01:40:12;17.95;;;10.45;;
57842;SDS011;43673;51.058;3.734;2023-08-06T01:42:39;20.98;;;12.52;;
57842;SDS011;43673;51.058;3.734;2023-08-06T01:45:05;16.38;;;10.43;;
57842;SDS011;43673;51.058;3.734;2023-08-06T01:47:32;21.88;;;11.23;;
57842;SDS011;43673;51.058;3.734;2023-08-06T01:49:58;15.82;;;10.38;;
57842;SDS011;43673;51.058;3.734;2023-08-06T01:52:24;12.68;;;9.63;;
57842;SDS011;43673;51.058;3.734;2023-08-06T01:54:49;13.75;;;9.82;;
57842;SDS011;43673;51.058;3.734;2023-08-06T01:57:15;13.45;;;7.90;;
57842;SDS011;43673;51.058;3.734;2023-08-06T01:59:41;9.50;;;7.25;;
57842;SDS011;43673;51.058;3.734;2023-08-06T02:02:06;9.98;;;6.55;;
57842;SDS011;43673;51.058;3.734;2023-08-06T02:04:32;9.75;;;6.20;;
57842;SDS011;43673;51.058;3.734;2023-08-06T02:06:58;8.93;;;5.85;;
57842;SDS011;43673;51.058;3.734;2023-08-06T02:09:23;8.88;;;5.13;;
57842;SDS011;43673;51.058;3.734;2023-08-06T02:11:49;8.27;;;4.28;;
57842;SDS011;43673;51.058;3.734;2023-08-06T02:14:15;7.78;;;4.03;;
57842;SDS011;43673;51.058;3.734;2023-08-06T02:16:40;6.05;;;2.97;;
57842;SDS011;43673;51.058;3.734;2023-08-06T02:19:06;4.68;;;1.95;;
57842;SDS011;43673;51.058;3.734;2023-08-06T02:21:32;6.55;;;2.22;;
57842;SDS011;43673;51.058;3.734;2023-08-06T02:23:57;7.32;;;2.28;;
57842;SDS011;43673;51.058;3.734;2023-08-06T02:26:23;3.00;;;2.17;;
57842;SDS011;43673;51.058;3.734;2023-08-06T02:28:49;5.85;;;2.97;;
57842;SDS011;43673;51.058;3.734;2023-08-06T02:31:15;6.63;;;2.92;;
57842;SDS011;43673;51.058;3.734;2023-08-06T02:33:40;7.10;;;2.80;;
57842;SDS011;43673;51.058;3.734;2023-08-06T02:36:06;4.93;;;2.78;;
57842;SDS011;43673;51.058;3.734;2023-08-06T02:38:32;10.88;;;3.40;;
57842;SDS011;43673;51.058;3.734;2023-08-06T02:40:58;10.00;;;3.20;;
57842;SDS011;43673;51.058;3.734;2023-08-06T02:43:24;8.90;;;3.20;;
57842;SDS011;43673;51.058;3.734;2023-08-06T02:45:50;7.65;;;3.67;;
57842;SDS011;43673;51.058;3.734;2023-08-06T02:48:15;9.77;;;3.25;;
57842;SDS011;43673;51.058;3.734;2023-08-06T02:50:43;5.32;;;3.20;;
57842;SDS011;43673;51.058;3.734;2023-08-06T02:53:09;8.13;;;3.08;;
57842;SDS011;43673;51.058;3.734;2023-08-06T02:55:35;9.38;;;3.95;;
57842;SDS011;43673;51.058;3.734;2023-08-06T02:58:01;14.48;;;4.60;;
57842;SDS011;43673;51.058;3.734;2023-08-06T03:00:27;10.27;;;4.78;;
57842;SDS011;43673;51.058;3.734;2023-08-06T03:02:53;10.93;;;5.32;;
57842;SDS011;43673;51.058;3.734;2023-08-06T03:05:19;15.75;;;6.90;;
57842;SDS011;43673;51.058;3.734;2023-08-06T03:07:45;11.95;;;5.03;;
57842;SDS011;43673;51.058;3.734;2023-08-06T03:10:10;12.45;;;6.20;;
57842;SDS011;43673;51.058;3.734;2023-08-06T03:12:36;15.98;;;7.18;;
57842;SDS011;43673;51.058;3.734;2023-08-06T03:15:02;17.13;;;6.25;;
57842;SDS011;43673;51.058;3.734;2023-08-06T03:17:28;11.40;;;6.30;;
57842;SDS011;43673;51.058;3.734;2023-08-06T03:19:54;11.30;;;6.45;;
57842;SDS011;43673;51.058;3.734;2023-08-06T03:22:19;15.52;;;6.57;;
57842;SDS011;43673;51.058;3.734;2023-08-06T03:24:45;12.90;;;6.30;;
57842;SDS011;43673;51.058;3.734;2023-08-06T03:27:10;13.27;;;6.13;;
57842;SDS011;43673;51.058;3.734;2023-08-06T03:29:36;12.52;;;7.20;;
57842;SDS011;43673;51.058;3.734;2023-08-06T03:32:02;15.13;;;7.65;;
57842;SDS011;43673;51.058;3.734;2023-08-06T03:34:27;12.85;;;7.93;;
57842;SDS011;43673;51.058;3.734;2023-08-06T03:36:53;13.27;;;7.55;;
57842;SDS011;43673;51.058;3.734;2023-08-06T03:39:19;12.55;;;7.40;;
57842;SDS011;43673;51.058;3.734;2023-08-06T03:41:45;12.60;;;7.00;;
57842;SDS011;43673;51.058;3.734;2023-08-06T03:44:10;15.70;;;6.32;;
57842;SDS011;43673;51.058;3.734;2023-08-06T03:46:36;16.80;;;6.63;;
57842;SDS011;43673;51.058;3.734;2023-08-06T03:49:02;16.02;;;7.63;;
57842;SDS011;43673;51.058;3.734;2023-08-06T03:51:28;17.50;;;7.30;;
57842;SDS011;43673;51.058;3.734;2023-08-06T03:53:54;21.90;;;6.55;;
57842;SDS011;43673;51.058;3.734;2023-08-06T03:56:20;16.08;;;6.65;;
57842;SDS011;43673;51.058;3.734;2023-08-06T03:58:46;16.05;;;5.57;;
57842;SDS011;43673;51.058;3.734;2023-08-06T04:01:12;14.23;;;6.07;;
57842;SDS011;43673;51.058;3.734;2023-08-06T04:03:38;12.18;;;6.00;;
57842;SDS011;43673;51.058;3.734;2023-08-06T04:06:04;11.90;;;5.88;;
57842;SDS011;43673;51.058;3.734;2023-08-06T04:08:29;14.48;;;5.97;;
57842;SDS011;43673;51.058;3.734;2023-08-06T04:11:03;13.40;;;4.25;;
57842;SDS011;43673;51.058;3.734;2023-08-06T04:13:48;11.52;;;4.15;;
57842;SDS011;43673;51.058;3.734;2023-08-06T04:16:28;9.90;;;4.03;;
57842;SDS011;43673;51.058;3.734;2023-08-06T04:19:00;14.85;;;5.18;;
57842;SDS011;43673;51.058;3.734;2023-08-06T04:21:35;19.20;;;4.47;;
57842;SDS011;43673;51.058;3.734;2023-08-06T04:24:00;14.30;;;4.28;;
57842;SDS011;43673;51.058;3.734;2023-08-06T04:26:26;6.40;;;4.15;;
57842;SDS011;43673;51.058;3.734;2023-08-06T04:28:52;12.02;;;4.15;;
57842;SDS011;43673;51.058;3.734;2023-08-06T04:31:18;18.63;;;5.38;;
57842;SDS011;43673;51.058;3.734;2023-08-06T04:33:47;8.95;;;3.80;;
57842;SDS011;43673;51.058;3.734;2023-08-06T04:36:22;11.07;;;4.95;;
57842;SDS011;43673;51.058;3.734;2023-08-06T04:38:47;12.55;;;4.07;;
57842;SDS011;43673;51.058;3.734;2023-08-06T04:41:16;6.75;;;3.40;;
57842;SDS011;43673;51.058;3.734;2023-08-06T04:43:43;10.98;;;6.00;;
57842;SDS011;43673;51.058;3.734;2023-08-06T04:46:11;10.68;;;4.30;;
57842;SDS011;43673;51.058;3.734;2023-08-06T04:57:35;10.95;;;4.78;;
57842;SDS011;43673;51.058;3.734;2023-08-06T05:00:01;9.35;;;4.05;;
57842;SDS011;43673;51.058;3.734;2023-08-06T05:02:29;10.45;;;4.50;;
57842;SDS011;43673;51.058;3.734;2023-08-06T05:04:57;10.45;;;4.97;;
57842;SDS011;43673;51.058;3.734;2023-08-06T05:07:23;10.88;;;4.47;;
57842;SDS011;43673;51.058;3.734;2023-08-06T05:09:51;9.88;;;5.05;;
57842;SDS011;43673;51.058;3.734;2023-08-06T05:12:17;11.55;;;4.25;;
57842;SDS011;43673;51.058;3.734;2023-08-06T05:14:45;11.20;;;4.28;;
57842;SDS011;43673;51.058;3.734;2023-08-06T05:17:11;7.68;;;3.92;;
57842;SDS011;43673;51.058;3.734;2023-08-06T05:19:43;14.13;;;5.00;;
57842;SDS011;43673;51.058;3.734;2023-08-06T05:22:09;13.05;;;4.57;;
57842;SDS011;43673;51.058;3.734;2023-08-06T05:24:35;19.77;;;5.38;;
57842;SDS011;43673;51.058;3.734;2023-08-06T05:27:01;8.57;;;4.90;;
57842;SDS011;43673;51.058;3.734;2023-08-06T05:29:27;12.23;;;4.63;;
57842;SDS011;43673;51.058;3.734;2023-08-06T05:31:53;9.38;;;4.18;;
57842;SDS011;43673;51.058;3.734;2023-08-06T05:34:19;10.38;;;4.57;;
57842;SDS011;43673;51.058;3.734;2023-08-06T05:36:45;11.32;;;5.38;;
57842;SDS011;43673;51.058;3.734;2023-08-06T05:39:11;12.75;;;4.43;;
57842;SDS011;43673;51.058;3.734;2023-08-06T05:41:48;10.07;;;4.55;;
57842;SDS011;43673;51.058;3.734;2023-08-06T05:44:15;15.95;;;5.05;;
57842;SDS011;43673;51.058;3.734;2023-08-06T05:46:41;12.88;;;4.40;;
57842;SDS011;43673;51.058;3.734;2023-08-06T05:49:10;11.00;;;5.32;;
57842;SDS011;43673;51.058;3.734;2023-08-06T05:51:37;9.48;;;4.40;;
57842;SDS011;43673;51.058;3.734;2023-08-06T05:54:06;14.02;;;4.35;;
57842;SDS011;43673;51.058;3.734;2023-08-06T05:56:32;7.43;;;3.65;;
57842;SDS011;43673;51.058;3.734;2023-08-06T05:58:58;8.73;;;3.58;;
57842;SDS011;43673;51.058;3.734;2023-08-06T06:01:26;11.57;;;4.25;;
57842;SDS011;43673;51.058;3.734;2023-08-06T06:03:52;6.95;;;3.03;;
57842;SDS011;43673;51.058;3.734;2023-08-06T06:06:18;10.10;;;2.47;;
57842;SDS011;43673;51.058;3.734;2023-08-06T06:08:50;7.60;;;2.45;;
57842;SDS011;43673;51.058;3.734;2023-08-06T06:11:16;7.20;;;3.05;;
57842;SDS011;43673;51.058;3.734;2023-08-06T06:16:19;11.60;;;2.67;;
57842;SDS011;43673;51.058;3.734;2023-08-06T06:18:55;9.00;;;2.17;;
57842;SDS011;43673;51.058;3.734;2023-08-06T06:21:23;8.15;;;2.70;;
57842;SDS011;43673;51.058;3.734;2023-08-06T06:23:49;16.17;;;2.90;;
57842;SDS011;43673;51.058;3.734;2023-08-06T06:26:17;10.77;;;2.50;;
57842;SDS011;43673;51.058;3.734;2023-08-06T06:28:43;9.35;;;3.10;;
57842;SDS011;43673;51.058;3.734;2023-08-06T06:31:09;9.07;;;2.58;;
57842;SDS011;43673;51.058;3.734;2023-08-06T06:33:36;8.23;;;2.72;;
57842;SDS011;43673;51.058;3.734;2023-08-06T06:36:02;13.48;;;3.10;;
57842;SDS011;43673;51.058;3.734;2023-08-06T06:38:28;6.43;;;2.00;;
57842;SDS011;43673;51.058;3.734;2023-08-06T06:40:55;11.25;;;3.00;;
57842;SDS011;43673;51.058;3.734;2023-08-06T06:43:21;10.68;;;3.33;;
57842;SDS011;43673;51.058;3.734;2023-08-06T06:45:55;11.93;;;2.72;;
57842;SDS011;43673;51.058;3.734;2023-08-06T06:48:23;10.80;;;3.03;;
57842;SDS011;43673;51.058;3.734;2023-08-06T06:50:52;11.27;;;3.13;;
57842;SDS011;43673;51.058;3.734;2023-08-06T06:56:17;8.60;;;3.13;;
57842;SDS011;43673;51.058;3.734;2023-08-06T06:58:43;11.65;;;2.92;;
57842;SDS011;43673;51.058;3.734;2023-08-06T07:01:09;16.42;;;2.90;;
57842;SDS011;43673;51.058;3.734;2023-08-06T07:03:46;10.80;;;2.95;;
57842;SDS011;43673;51.058;3.734;2023-08-06T07:06:14;16.45;;;3.53;;
57842;SDS011;43673;51.058;3.734;2023-08-06T07:08:40;16.05;;;2.63;;
57842;SDS011;43673;51.058;3.734;2023-08-06T07:11:06;6.32;;;2.50;;
57842;SDS011;43673;51.058;3.734;2023-08-06T07:13:33;10.95;;;3.25;;
57842;SDS011;43673;51.058;3.734;2023-08-06T07:15:59;14.00;;;2.90;;
57842;SDS011;43673;51.058;3.734;2023-08-06T07:18:28;8.50;;;3.15;;
57842;SDS011;43673;51.058;3.734;2023-08-06T07:20:54;9.43;;;2.28;;
57842;SDS011;43673;51.058;3.734;2023-08-06T07:23:21;7.18;;;2.53;;
57842;SDS011;43673;51.058;3.734;2023-08-06T07:25:48;7.38;;;2.33;;
57842;SDS011;43673;51.058;3.734;2023-08-06T07:28:14;9.35;;;2.95;;
57842;SDS011;43673;51.058;3.734;2023-08-06T07:30:41;9.05;;;3.03;;
57842;SDS011;43673;51.058;3.734;2023-08-06T07:33:08;5.05;;;2.75;;
57842;SDS011;43673;51.058;3.734;2023-08-06T07:35:34;9.38;;;2.67;;
57842;SDS011;43673;51.058;3.734;2023-08-06T07:38:00;10.98;;;2.97;;
57842;SDS011;43673;51.058;3.734;2023-08-06T07:40:26;12.88;;;3.40;;
57842;SDS011;43673;51.058;3.734;2023-08-06T07:42:51;11.48;;;2.60;;
57842;SDS011;43673;51.058;3.734;2023-08-06T07:45:17;12.57;;;2.40;;
57842;SDS011;43673;51.058;3.734;2023-08-06T07:47:43;5.45;;;2.03;;
57842;SDS011;43673;51.058;3.734;2023-08-06T07:50:09;9.02;;;2.40;;
57842;SDS011;43673;51.058;3.734;2023-08-06T07:52:35;8.50;;;2.35;;
57842;SDS011;43673;51.058;3.734;2023-08-06T07:55:01;4.20;;;3.30;;
57842;SDS011;43673;51.058;3.734;2023-08-06T07:57:30;6.57;;;2.60;;
57842;SDS011;43673;51.058;3.734;2023-08-06T07:59:57;16.65;;;3.08;;
57842;SDS011;43673;51.058;3.734;2023-08-06T08:02:23;5.97;;;2.15;;
57842;SDS011;43673;51.058;3.734;2023-08-06T08:04:50;8.32;;;3.15;;
57842;SDS011;43673;51.058;3.734;2023-08-06T08:07:15;14.55;;;3.00;;
57842;SDS011;43673;51.058;3.734;2023-08-06T08:09:44;10.10;;;3.40;;
57842;SDS011;43673;51.058;3.734;2023-08-06T08:12:19;7.50;;;2.63;;
57842;SDS011;43673;51.058;3.734;2023-08-06T08:14:45;8.75;;;3.20;;
57842;SDS011;43673;51.058;3.734;2023-08-06T08:17:11;6.53;;;2.70;;
57842;SDS011;43673;51.058;3.734;2023-08-06T08:19:37;11.63;;;2.50;;
57842;SDS011;43673;51.058;3.734;2023-08-06T08:22:03;8.05;;;2.30;;
57842;SDS011;43673;51.058;3.734;2023-08-06T08:24:28;6.60;;;2.72;;
57842;SDS011;43673;51.058;3.734;2023-08-06T08:26:55;7.53;;;3.15;;
57842;SDS011;43673;51.058;3.734;2023-08-06T08:29:21;14.55;;;2.50;;
57842;SDS011;43673;51.058;3.734;2023-08-06T08:31:48;10.55;;;3.75;;
57842;SDS011;43673;51.058;3.734;2023-08-06T08:34:18;10.52;;;3.30;;
57842;SDS011;43673;51.058;3.734;2023-08-06T08:36:44;9.48;;;3.80;;
57842;SDS011;43673;51.058;3.734;2023-08-06T08:39:12;8.32;;;3.15;;
57842;SDS011;43673;51.058;3.734;2023-08-06T08:41:39;9.32;;;2.97;;
57842;SDS011;43673;51.058;3.734;2023-08-06T08:44:09;15.43;;;3.67;;
57842;SDS011;43673;51.058;3.734;2023-08-06T08:46:36;12.55;;;2.83;;
57842;SDS011;43673;51.058;3.734;2023-08-06T08:49:05;8.35;;;3.15;;
57842;SDS011;43673;51.058;3.734;2023-08-06T08:51:32;10.60;;;4.00;;
57842;SDS011;43673;51.058;3.734;2023-08-06T08:54:00;5.57;;;2.33;;
57842;SDS011;43673;51.058;3.734;2023-08-06T08:56:28;7.68;;;2.50;;
57842;SDS011;43673;51.058;3.734;2023-08-06T08:58:54;8.48;;;3.22;;
57842;SDS011;43673;51.058;3.734;2023-08-06T09:01:21;9.90;;;3.15;;
57842;SDS011;43673;51.058;3.734;2023-08-06T09:03:47;12.13;;;3.10;;
57842;SDS011;43673;51.058;3.734;2023-08-06T09:06:13;10.13;;;2.80;;
57842;SDS011;43673;51.058;3.734;2023-08-06T09:11:35;7.07;;;3.05;;
57842;SDS011;43673;51.058;3.734;2023-08-06T09:14:07;8.00;;;2.60;;
57842;SDS011;43673;51.058;3.734;2023-08-06T09:16:37;7.25;;;2.30;;
57842;SDS011;43673;51.058;3.734;2023-08-06T09:19:09;8.85;;;2.83;;
57842;SDS011;43673;51.058;3.734;2023-08-06T09:21:37;11.23;;;2.58;;
57842;SDS011;43673;51.058;3.734;2023-08-06T09:24:11;12.18;;;2.80;;
57842;SDS011;43673;51.058;3.734;2023-08-06T09:26:42;6.10;;;2.85;;
57842;SDS011;43673;51.058;3.734;2023-08-06T09:29:10;6.07;;;2.75;;
57842;SDS011;43673;51.058;3.734;2023-08-06T09:31:57;14.23;;;2.53;;
57842;SDS011;43673;51.058;3.734;2023-08-06T09:34:23;9.55;;;3.63;;
57842;SDS011;43673;51.058;3.734;2023-08-06T09:36:49;9.60;;;2.58;;
57842;SDS011;43673;51.058;3.734;2023-08-06T09:39:21;10.95;;;2.65;;
57842;SDS011;43673;51.058;3.734;2023-08-06T09:41:52;12.25;;;2.63;;
57842;SDS011;43673;51.058;3.734;2023-08-06T09:46:49;9.15;;;3.03;;
57842;SDS011;43673;51.058;3.734;2023-08-06T09:49:17;12.35;;;2.70;;
57842;SDS011;43673;51.058;3.734;2023-08-06T09:51:59;9.13;;;2.55;;
57842;SDS011;43673;51.058;3.734;2023-08-06T10:04:47;7.93;;;3.15;;
57842;SDS011;43673;51.058;3.734;2023-08-06T10:07:13;10.57;;;3.78;;
57842;SDS011;43673;51.058;3.734;2023-08-06T10:09:40;10.70;;;3.53;;
57842;SDS011;43673;51.058;3.734;2023-08-06T10:12:06;11.32;;;3.38;;
57842;SDS011;43673;51.058;3.734;2023-08-06T10:14:33;9.27;;;3.10;;
57842;SDS011;43673;51.058;3.734;2023-08-06T10:17:02;9.18;;;3.33;;
57842;SDS011;43673;51.058;3.734;2023-08-06T10:22:10;12.55;;;4.40;;
57842;SDS011;43673;51.058;3.734;2023-08-06T10:24:45;9.68;;;2.60;;
57842;SDS011;43673;51.058;3.734;2023-08-06T10:27:35;9.80;;;2.53;;
57842;SDS011;43673;51.058;3.734;2023-08-06T10:30:32;15.23;;;4.47;;
57842;SDS011;43673;51.058;3.734;2023-08-06T10:33:15;6.97;;;2.95;;
57842;SDS011;43673;51.058;3.734;2023-08-06T10:35:44;3.25;;;2.33;;
57842;SDS011;43673;51.058;3.734;2023-08-06T10:38:25;7.88;;;2.90;;
57842;SDS011;43673;51.058;3.734;2023-08-06T10:43:47;14.73;;;3.25;;
57842;SDS011;43673;51.058;3.734;2023-08-06T10:46:23;8.88;;;3.05;;
57842;SDS011;43673;51.058;3.734;2023-08-06T10:48:52;21.17;;;3.78;;
57842;SDS011;43673;51.058;3.734;2023-08-06T10:51:23;8.45;;;4.07;;
57842;SDS011;43673;51.058;3.734;2023-08-06T10:54:04;13.35;;;3.22;;
57842;SDS011;43673;51.058;3.734;2023-08-06T10:56:30;9.13;;;3.25;;
57842;SDS011;43673;51.058;3.734;2023-08-06T10:58:56;14.20;;;3.05;;
57842;SDS011;43673;51.058;3.734;2023-08-06T11:01:22;11.43;;;3.30;;
57842;SDS011;43673;51.058;3.734;2023-08-06T11:03:49;10.55;;;3.42;;
57842;SDS011;43673;51.058;3.734;2023-08-06T11:06:18;7.45;;;3.05;;
57842;SDS011;43673;51.058;3.734;2023-08-06T11:08:51;7.50;;;2.58;;
57842;SDS011;43673;51.058;3.734;2023-08-06T11:11:23;7.38;;;3.17;;
57842;SDS011;43673;51.058;3.734;2023-08-06T11:13:50;7.03;;;2.80;;
57842;SDS011;43673;51.058;3.734;2023-08-06T11:16:20;8.27;;;3.20;;
57842;SDS011;43673;51.058;3.734;2023-08-06T11:18:50;6.32;;;2.45;;
57842;SDS011;43673;51.058;3.734;2023-08-06T11:21:21;9.90;;;3.13;;
57842;SDS011;43673;51.058;3.734;2023-08-06T11:23:47;7.80;;;2.70;;
57842;SDS011;43673;51.058;3.734;2023-08-06T11:26:18;7.85;;;3.22;;
57842;SDS011;43673;51.058;3.734;2023-08-06T11:28:48;8.85;;;3.20;;
57842;SDS011;43673;51.058;3.734;2023-08-06T11:31:20;11.02;;;3.10;;
57842;SDS011;43673;51.058;3.734;2023-08-06T11:33:47;10.43;;;3.17;;
57842;SDS011;43673;51.058;3.734;2023-08-06T11:36:14;8.00;;;2.40;;
57842;SDS011;43673;51.058;3.734;2023-08-06T11:38:40;11.93;;;3.63;;
57842;SDS011;43673;51.058;3.734;2023-08-06T11:41:06;11.93;;;3.17;;
57842;SDS011;43673;51.058;3.734;2023-08-06T11:43:32;13.85;;;4.03;;
57842;SDS011;43673;51.058;3.734;2023-08-06T11:45:58;11.10;;;3.50;;
57842;SDS011;43673;51.058;3.734;2023-08-06T11:48:25;11.20;;;2.65;;
57842;SDS011;43673;51.058;3.734;2023-08-06T11:50:53;5.30;;;2.90;;
57842;SDS011;43673;51.058;3.734;2023-08-06T11:53:20;10.48;;;2.63;;
57842;SDS011;43673;51.058;3.734;2023-08-06T11:55:46;9.15;;;2.80;;
57842;SDS011;43673;51.058;3.734;2023-08-06T11:58:12;12.80;;;2.00;;
57842;SDS011;43673;51.058;3.734;2023-08-06T12:00:52;8.38;;;2.40;;
57842;SDS011;43673;51.058;3.734;2023-08-06T12:03:23;11.13;;;3.00;;
57842;SDS011;43673;51.058;3.734;2023-08-06T12:05:55;14.95;;;3.08;;
57842;SDS011;43673;51.058;3.734;2023-08-06T12:08:21;8.38;;;2.95;;
57842;SDS011;43673;51.058;3.734;2023-08-06T12:10:52;5.70;;;2.30;;
57842;SDS011;43673;51.058;3.734;2023-08-06T12:13:19;9.93;;;3.20;;
57842;SDS011;43673;51.058;3.734;2023-08-06T12:15:45;12.90;;;4.45;;
57842;SDS011;43673;51.058;3.734;2023-08-06T12:18:10;12.60;;;3.90;;
57842;SDS011;43673;51.058;3.734;2023-08-06T12:20:36;10.70;;;2.90;;
57842;SDS011;43673;51.058;3.734;2023-08-06T12:23:03;9.98;;;2.83;;
57842;SDS011;43673;51.058;3.734;2023-08-06T12:25:29;11.73;;;2.80;;
57842;SDS011;43673;51.058;3.734;2023-08-06T12:27:55;10.70;;;3.22;;
57842;SDS011;43673;51.058;3.734;2023-08-06T12:30:21;8.27;;;2.13;;
57842;SDS011;43673;51.058;3.734;2023-08-06T12:32:46;7.50;;;2.38;;
57842;SDS011;43673;51.058;3.734;2023-08-06T12:35:12;9.02;;;3.17;;
57842;SDS011;43673;51.058;3.734;2023-08-06T12:37:39;9.50;;;2.20;;
57842;SDS011;43673;51.058;3.734;2023-08-06T12:40:05;5.90;;;2.15;;
57842;SDS011;43673;51.058;3.734;2023-08-06T12:42:31;5.57;;;2.70;;
57842;SDS011;43673;51.058;3.734;2023-08-06T12:44:57;7.10;;;3.05;;
57842;SDS011;43673;51.058;3.734;2023-08-06T12:47:23;9.73;;;2.85;;
57842;SDS011;43673;51.058;3.734;2023-08-06T12:49:49;6.47;;;2.70;;
57842;SDS011;43673;51.058;3.734;2023-08-06T12:52:15;7.53;;;3.00;;
57842;SDS011;43673;51.058;3.734;2023-08-06T12:54:41;7.88;;;3.47;;
57842;SDS011;43673;51.058;3.734;2023-08-06T12:57:07;5.97;;;2.65;;
57842;SDS011;43673;51.058;3.734;2023-08-06T12:59:33;9.23;;;3.25;;
57842;SDS011;43673;51.058;3.734;2023-08-06T13:02:01;10.82;;;3.00;;
57842;SDS011;43673;51.058;3.734;2023-08-06T13:04:27;11.25;;;3.53;;
57842;SDS011;43673;51.058;3.734;2023-08-06T13:06:53;12.57;;;2.63;;
57842;SDS011;43673;51.058;3.734;2023-08-06T13:09:19;12.60;;;2.85;;
57842;SDS011;43673;51.058;3.734;2023-08-06T13:11:45;7.53;;;2.95;;
57842;SDS011;43673;51.058;3.734;2023-08-06T13:14:15;10.43;;;3.45;;
57842;SDS011;43673;51.058;3.734;2023-08-06T13:16:42;8.52;;;3.00;;
57842;SDS011;43673;51.058;3.734;2023-08-06T13:19:08;12.52;;;2.58;;
57842;SDS011;43673;51.058;3.734;2023-08-06T13:24:06;9.70;;;2.60;;
57842;SDS011;43673;51.058;3.734;2023-08-06T13:26:32;6.15;;;2.55;;
57842;SDS011;43673;51.058;3.734;2023-08-06T13:28:58;10.60;;;2.60;;
57842;SDS011;43673;51.058;3.734;2023-08-06T13:31:25;5.18;;;2.47;;
57842;SDS011;43673;51.058;3.734;2023-08-06T13:33:52;9.82;;;2.67;;
57842;SDS011;43673;51.058;3.734;2023-08-06T13:36:23;8.48;;;2.50;;
57842;SDS011;43673;51.058;3.734;2023-08-06T13:38:50;8.18;;;2.60;;
57842;SDS011;43673;51.058;3.734;2023-08-06T13:41:16;9.90;;;3.45;;
57842;SDS011;43673;51.058;3.734;2023-08-06T13:43:42;4.07;;;2.40;;
57842;SDS011;43673;51.058;3.734;2023-08-06T13:46:09;10.25;;;3.15;;
57842;SDS011;43673;51.058;3.734;2023-08-06T13:48:38;5.75;;;2.15;;
57842;SDS011;43673;51.058;3.734;2023-08-06T13:51:04;11.35;;;2.72;;
57842;SDS011;43673;51.058;3.734;2023-08-06T13:53:30;8.45;;;2.58;;
57842;SDS011;43673;51.058;3.734;2023-08-06T13:55:56;9.82;;;3.20;;
57842;SDS011;43673;51.058;3.734;2023-08-06T13:58:22;7.28;;;2.80;;
57842;SDS011;43673;51.058;3.734;2023-08-06T14:00:48;9.77;;;2.30;;
57842;SDS011;43673;51.058;3.734;2023-08-06T14:03:14;9.88;;;2.72;;
57842;SDS011;43673;51.058;3.734;2023-08-06T14:05:45;10.68;;;2.35;;
57842;SDS011;43673;51.058;3.734;2023-08-06T14:08:11;7.18;;;2.85;;
57842;SDS011;43673;51.058;3.734;2023-08-06T14:10:38;7.05;;;2.97;;
57842;SDS011;43673;51.058;3.734;2023-08-06T14:13:04;7.20;;;2.72;;
57842;SDS011;43673;51.058;3.734;2023-08-06T14:15:30;6.88;;;2.05;;
57842;SDS011;43673;51.058;3.734;2023-08-06T14:17:56;8.43;;;2.80;;
57842;SDS011;43673;51.058;3.734;2023-08-06T14:20:21;8.05;;;2.70;;
57842;SDS011;43673;51.058;3.734;2023-08-06T14:22:48;8.07;;;2.17;;
57842;SDS011;43673;51.058;3.734;2023-08-06T14:25:14;10.32;;;2.58;;
57842;SDS011;43673;51.058;3.734;2023-08-06T14:27:39;6.45;;;2.15;;
57842;SDS011;43673;51.058;3.734;2023-08-06T14:30:06;9.57;;;2.88;;
57842;SDS011;43673;51.058;3.734;2023-08-06T14:32:32;6.70;;;2.97;;
57842;SDS011;43673;51.058;3.734;2023-08-06T14:34:58;7.20;;;2.40;;
57842;SDS011;43673;51.058;3.734;2023-08-06T14:37:24;7.82;;;2.38;;
57842;SDS011;43673;51.058;3.734;2023-08-06T14:39:50;6.47;;;2.25;;
57842;SDS011;43673;51.058;3.734;2023-08-06T14:42:18;6.00;;;2.17;;
57842;SDS011;43673;51.058;3.734;2023-08-06T14:44:43;8.75;;;2.60;;
57842;SDS011;43673;51.058;3.734;2023-08-06T14:47:09;5.43;;;2.08;;
57842;SDS011;43673;51.058;3.734;2023-08-06T14:49:35;4.97;;;2.55;;
57842;SDS011;43673;51.058;3.734;2023-08-06T14:52:02;7.35;;;2.63;;
57842;SDS011;43673;51.058;3.734;2023-08-06T14:54:28;6.60;;;2.65;;
57842;SDS011;43673;51.058;3.734;2023-08-06T14:56:54;12.10;;;2.63;;
57842;SDS011;43673;51.058;3.734;2023-08-06T14:59:20;8.45;;;2.80;;
57842;SDS011;43673;51.058;3.734;2023-08-06T15:01:46;11.20;;;3.05;;
57842;SDS011;43673;51.058;3.734;2023-08-06T15:04:11;8.18;;;2.92;;
57842;SDS011;43673;51.058;3.734;2023-08-06T15:06:37;6.00;;;2.80;;
57842;SDS011;43673;51.058;3.734;2023-08-06T15:09:03;8.77;;;2.60;;
57842;SDS011;43673;51.058;3.734;2023-08-06T15:11:29;6.43;;;2.00;;
57842;SDS011;43673;51.058;3.734;2023-08-06T15:13:54;13.35;;;3.45;;
57842;SDS011;43673;51.058;3.734;2023-08-06T15:16:20;8.18;;;2.70;;
57842;SDS011;43673;51.058;3.734;2023-08-06T15:18:46;9.95;;;2.55;;
57842;SDS011;43673;51.058;3.734;2023-08-06T15:21:11;15.93;;;3.17;;
57842;SDS011;43673;51.058;3.734;2023-08-06T15:23:37;7.88;;;3.53;;